Time;durP1;ratioP1;P1;durP2;ratioP2;P2;SDS_P1;SDS_P2;PMS_P1;PMS_P2;Temp;Humidity;BMP_temperature;BMP_pressure;BME280_temperature;BME280_humidity;BME280_pressure;Samples;Min_cycle;Max_cycle;Signal;HPM_P1;HPM_P2
2022/10/03 00:01:39;;;;;;;;;;;17.40;94.50;;;;;;5075497;28;19917;-77
2022/10/03 00:04:06;;;;;;;;;;;17.50;94.20;;;;;;5075227;28;19908;-78
2022/10/03 00:06:36;;;;;;;;;;;17.50;94.10;;;;;;5074762;28;19916;-76
2022/10/03 00:09:08;;;;;;;;;;;17.40;94.10;;;;;;5073748;28;19912;-77
2022/10/03 00:11:41;;;;;;;;;;;17.60;94.10;;;;;;5108764;28;19908;-76
2022/10/03 00:14:10;;;;;;;;;;;17.70;93.80;;;;;;5108981;28;19957;-75
2022/10/03 00:16:47;;;;;;;;;;;17.80;94.10;;;;;;5096112;28;19935;-73
2022/10/03 00:19:27;;;;;;;;;;;18.00;93.40;;;;;;5092017;28;19923;-74
2022/10/03 00:21:56;;;;;;;;;;;18.10;92.60;;;;;;5088797;28;20378;-76
2022/10/03 00:24:28;;;;;;;;;;;18.30;92.00;;;;;;5076533;28;19958;-75
2022/10/03 00:27:10;;;;;;;;;;;18.30;91.60;;;;;;5073682;28;19927;-74
2022/10/03 00:29:46;;;;;;;;;;;18.50;91.40;;;;;;5091201;28;19912;-74
2022/10/03 00:32:21;;;;;;;;;;;18.50;91.10;;;;;;5088646;28;19919;-75
2022/10/03 00:34:47;;;;;;;;;;;18.80;91.50;;;;;;5092036;28;19942;-77
2022/10/03 00:37:22;;;;;;;;;;;18.90;91.50;;;;;;5077301;28;19916;-76
2022/10/03 00:40:15;;;;;;;;;;;19.00;91.70;;;;;;5092740;28;20078;-77
2022/10/03 00:42:45;;;;;;;;;;;18.90;91.40;;;;;;5081725;28;19961;-74
2022/10/03 00:45:17;;;;;;;;;;;18.80;91.20;;;;;;5091661;28;19920;-76
2022/10/03 00:47:53;;;;;;;;;;;18.70;91.30;;;;;;5085048;28;19995;-79
2022/10/03 00:50:22;;;;;;;;;;;18.70;91.40;;;;;;5092568;28;19947;-76
2022/10/03 00:53:02;;;;;;;;;;;18.60;91.60;;;;;;5076422;28;20380;-76
2022/10/03 00:55:33;;;;;;;;;;;18.50;91.50;;;;;;5073947;28;20007;-77
2022/10/03 00:58:15;;;;;;;;;;;18.50;91.00;;;;;;5082513;28;19912;-75
2022/10/03 01:00:45;;;;;;;;;;;18.40;91.50;;;;;;5085220;28;20276;-74
2022/10/03 01:03:23;;;;;;;;;;;18.70;91.20;;;;;;5087135;28;19955;-75
2022/10/03 01:06:03;;;;;;;;;;;18.80;90.70;;;;;;5108428;28;20006;-76
2022/10/03 01:08:33;;;;;;;;;;;19.00;90.50;;;;;;5096465;28;19949;-79
2022/10/03 01:11:02;;;;;;;;;;;19.30;90.00;;;;;;5086984;28;19912;-76
2022/10/03 01:13:32;;;;;;;;;;;19.30;89.50;;;;;;5084889;28;20356;-72
2022/10/03 01:16:18;;;;;;;;;;;19.30;90.20;;;;;;5089254;28;19995;-73
2022/10/03 01:18:56;;;;;;;;;;;19.40;90.10;;;;;;5089486;28;19970;-75
2022/10/03 01:21:41;;;;;;;;;;;19.30;90.00;;;;;;5093433;28;20372;-73
2022/10/03 01:24:20;;;;;;;;;;;19.30;90.00;;;;;;5088410;28;19918;-73
2022/10/03 01:26:52;;;;;;;;;;;19.30;90.30;;;;;;5086668;28;19920;-75
2022/10/03 01:32:14;;;;;;;;;;;19.50;90.00;;;;;;5090023;28;19923;-73
2022/10/03 01:34:58;;;;;;;;;;;19.20;90.30;;;;;;5092456;28;19996;-73
2022/10/03 01:37:34;;;;;;;;;;;19.20;90.50;;;;;;5088532;28;20371;-76
2022/10/03 01:40:19;;;;;;;;;;;19.30;91.70;;;;;;5085409;28;19916;-76
2022/10/03 01:42:54;;;;;;;;;;;19.60;89.30;;;;;;5084680;28;20769;-76
2022/10/03 01:45:25;;;;;;;;;;;20.00;89.50;;;;;;5078180;28;19912;-73
2022/10/03 01:48:11;;;;;;;;;;;20.50;88.30;;;;;;5085757;28;20063;-73
2022/10/03 01:50:38;;;;;;;;;;;20.90;86.60;;;;;;5092549;28;19947;-77
2022/10/03 01:53:23;;;;;;;;;;;21.10;84.80;;;;;;5092242;28;19912;-74
2022/10/03 01:55:49;;;;;;;;;;;21.40;83.60;;;;;;5072302;28;19951;-76
2022/10/03 01:58:19;;;;;;;;;;;21.40;83.60;;;;;;5072942;28;19912;-77
2022/10/03 02:01:06;;;;;;;;;;;21.80;83.60;;;;;;5071559;28;19920;-79
2022/10/03 02:03:45;;;;;;;;;;;22.00;82.40;;;;;;5071521;28;19919;-75
2022/10/03 02:06:32;;;;;;;;;;;22.20;81.60;;;;;;5072065;28;19917;-77
2022/10/03 02:09:08;;;;;;;;;;;21.90;84.80;;;;;;5072021;28;20215;-75
2022/10/03 02:11:35;;;;;;;;;;;21.60;83.30;;;;;;5077120;28;19912;-78
2022/10/03 02:14:11;;;;;;;;;;;21.20;84.10;;;;;;5089094;28;20352;-77
2022/10/03 02:16:40;;;;;;;;;;;20.80;84.50;;;;;;5086333;28;19916;-76
2022/10/03 02:19:20;;;;;;;;;;;20.40;85.60;;;;;;5072820;28;19955;-74
2022/10/03 02:21:48;;;;;;;;;;;20.10;87.50;;;;;;5078531;28;19912;-77
2022/10/03 02:24:15;;;;;;;;;;;20.60;87.20;;;;;;5092575;28;20376;-76
2022/10/03 02:27:00;;;;;;;;;;;21.20;86.70;;;;;;5092586;28;19920;-76
2022/10/03 02:29:26;;;;;;;;;;;21.70;84.50;;;;;;5092499;28;19908;-75
2022/10/03 02:32:09;;;;;;;;;;;22.20;83.00;;;;;;5092417;28;19908;-72
2022/10/03 02:34:47;;;;;;;;;;;22.40;82.30;;;;;;5092569;28;19919;-76
2022/10/03 02:37:23;;;;;;;;;;;23.10;81.60;;;;;;5092420;28;19912;-74
2022/10/03 02:40:09;;;;;;;;;;;23.50;80.60;;;;;;5092620;28;20328;-75
2022/10/03 02:42:56;;;;;;;;;;;23.80;78.40;;;;;;5091785;28;19935;-75
2022/10/03 02:45:40;;;;;;;;;;;24.20;76.70;;;;;;5092095;28;19951;-76
2022/10/03 02:48:23;;;;;;;;;;;24.60;76.60;;;;;;5092438;28;19912;-75
2022/10/03 02:50:50;;;;;;;;;;;24.80;74.90;;;;;;5092309;28;19908;-74
2022/10/03 02:53:35;;;;;;;;;;;25.00;74.30;;;;;;5092157;28;19995;-76
2022/10/03 02:56:19;;;;;;;;;;;25.10;75.30;;;;;;5091949;28;19915;-72
2022/10/03 02:59:08;;;;;;;;;;;25.50;73.90;;;;;;5088334;28;19912;-76
2022/10/03 03:01:51;;;;;;;;;;;26.40;71.20;;;;;;5077200;28;19921;-74
2022/10/03 03:04:20;;;;;;;;;;;26.20;70.60;;;;;;5079207;28;19923;-76
2022/10/03 03:06:51;;;;;;;;;;;26.30;69.70;;;;;;5079486;28;20018;-72
2022/10/03 03:09:24;;;;;;;;;;;25.70;69.60;;;;;;5079665;28;19948;-72
2022/10/03 03:12:05;;;;;;;;;;;26.00;70.30;;;;;;5079519;28;19959;-73
2022/10/03 03:14:44;;;;;;;;;;;26.80;70.40;;;;;;5079405;28;20383;-72
2022/10/03 03:17:10;;;;;;;;;;;27.10;69.20;;;;;;5061356;28;20451;-76
2022/10/03 03:19:43;;;;;;;;;;;27.40;66.40;;;;;;5078559;28;19914;-74
2022/10/03 03:22:10;;;;;;;;;;;27.00;66.80;;;;;;5081439;28;19954;-76
2022/10/03 03:24:46;;;;;;;;;;;27.10;66.10;;;;;;5079513;28;20296;-72
2022/10/03 03:27:21;;;;;;;;;;;26.70;66.70;;;;;;5078854;28;19920;-74
2022/10/03 03:30:02;;;;;;;;;;;27.20;68.60;;;;;;5079508;28;19957;-73
2022/10/03 03:32:34;;;;;;;;;;;27.70;66.30;;;;;;5078152;28;19916;-73
2022/10/03 03:35:03;;;;;;;;;;;28.50;63.10;;;;;;5081791;28;20004;-77
2022/10/03 03:37:46;;;;;;;;;;;28.50;62.90;;;;;;5082718;28;19908;-76
2022/10/03 03:40:37;;;;;;;;;;;28.60;63.20;;;;;;5090376;28;20403;-76
2022/10/03 03:43:22;;;;;;;;;;;28.00;61.40;;;;;;5045275;28;19912;-77
2022/10/03 03:46:07;;;;;;;;;;;27.60;63.10;;;;;;5078796;28;20386;-72
2022/10/03 03:48:37;;;;;;;;;;;27.60;63.90;;;;;;5081953;28;19958;-73
2022/10/03 03:51:15;;;;;;;;;;;27.50;63.60;;;;;;5083313;28;19909;-74
2022/10/03 03:53:54;;;;;;;;;;;26.60;64.50;;;;;;5083042;28;19962;-74
2022/10/03 03:56:20;;;;;;;;;;;25.90;65.40;;;;;;5080383;28;19954;-76
2022/10/03 03:58:50;;;;;;;;;;;26.20;67.60;;;;;;5082019;28;19947;-75
2022/10/03 04:01:26;;;;;;;;;;;26.80;65.90;;;;;;5083753;28;20269;-80
2022/10/03 04:04:11;;;;;;;;;;;27.10;66.10;;;;;;5079103;28;19919;-78
2022/10/03 04:06:59;;;;;;;;;;;26.90;66.50;;;;;;5077855;28;19920;-75
2022/10/03 04:09:45;;;;;;;;;;;26.30;66.50;;;;;;5080798;28;20279;-73
2022/10/03 04:12:30;;;;;;;;;;;25.70;67.20;;;;;;5084438;28;19965;-79
2022/10/03 04:15:00;;;;;;;;;;;24.90;68.90;;;;;;5090072;28;20368;-75
2022/10/03 04:20:17;;;;;;;;;;;24.90;70.50;;;;;;5094768;28;20002;-77
2022/10/03 04:23:02;;;;;;;;;;;24.90;70.70;;;;;;5094726;28;19908;-75
2022/10/03 04:25:35;;;;;;;;;;;24.70;69.90;;;;;;5094329;28;19915;-72
2022/10/03 04:28:26;;;;;;;;;;;25.30;69.10;;;;;;5090583;28;19917;-75
2022/10/03 04:31:11;;;;;;;;;;;25.90;69.10;;;;;;5081165;28;19908;-76
2022/10/03 04:34:09;;;;;;;;;;;25.40;67.60;;;;;;5073068;28;20292;-77
2022/10/03 04:36:52;;;;;;;;;;;24.90;69.30;;;;;;5052803;28;19910;-73
2022/10/03 04:39:44;;;;;;;;;;;24.70;69.80;;;;;;5074887;28;19998;-76
2022/10/03 04:42:36;;;;;;;;;;;25.10;69.20;;;;;;5072409;28;19931;-77
2022/10/03 04:45:21;;;;;;;;;;;25.80;68.10;;;;;;5073534;28;20007;-76
2022/10/03 04:47:51;;;;;;;;;;;26.30;66.50;;;;;;5071629;28;19921;-78
2022/10/03 04:50:18;;;;;;;;;;;26.70;65.40;;;;;;5072060;28;20373;-74
2022/10/03 04:52:48;;;;;;;;;;;26.40;64.80;;;;;;5071165;28;19908;-74
2022/10/03 04:55:20;;;;;;;;;;;26.90;64.70;;;;;;5079565;28;19908;-73
2022/10/03 04:58:06;;;;;;;;;;;27.00;64.40;;;;;;5093589;28;19916;-75
2022/10/03 05:00:50;;;;;;;;;;;26.90;64.10;;;;;;5093838;28;20258;-77
2022/10/03 05:03:35;;;;;;;;;;;27.30;65.90;;;;;;5093481;28;20054;-76
2022/10/03 05:06:09;;;;;;;;;;;27.90;63.30;;;;;;5088968;28;19916;-73
2022/10/03 05:08:51;;;;;;;;;;;27.80;62.10;;;;;;5080675;28;20003;-73
2022/10/03 05:11:29;;;;;;;;;;;27.70;61.40;;;;;;5082432;28;19916;-74
2022/10/03 05:14:13;;;;;;;;;;;27.20;62.80;;;;;;5080161;28;19947;-74
2022/10/03 05:16:52;;;;;;;;;;;26.80;64.20;;;;;;5080069;28;19908;-74
2022/10/03 05:19:22;;;;;;;;;;;26.90;62.60;;;;;;5079933;28;19916;-75
2022/10/03 05:21:54;;;;;;;;;;;27.00;63.10;;;;;;5065415;28;20428;-74
2022/10/03 05:24:38;;;;;;;;;;;26.80;63.80;;;;;;5080734;28;20360;-74
2022/10/03 05:27:18;;;;;;;;;;;27.00;64.20;;;;;;5080875;28;19916;-75
2022/10/03 05:29:57;;;;;;;;;;;26.70;63.80;;;;;;5081008;28;19954;-73
2022/10/03 05:32:32;;;;;;;;;;;25.30;65.40;;;;;;5080847;28;19991;-76
2022/10/03 05:35:17;;;;;;;;;;;24.60;67.40;;;;;;5081329;28;19916;-74
2022/10/03 05:37:44;;;;;;;;;;;24.50;67.70;;;;;;5080556;28;19957;-76
2022/10/03 05:40:15;;;;;;;;;;;24.90;67.80;;;;;;5080215;28;19908;-72
2022/10/03 05:42:54;;;;;;;;;;;25.50;67.30;;;;;;5073875;28;19928;-78
2022/10/03 05:45:23;;;;;;;;;;;25.90;65.70;;;;;;5091927;28;19908;-78
2022/10/03 05:47:54;;;;;;;;;;;25.60;66.40;;;;;;5073737;28;19924;-74
2022/10/03 05:50:46;;;;;;;;;;;25.70;66.00;;;;;;5089778;28;19955;-79
2022/10/03 05:53:16;;;;;;;;;;;25.10;66.40;;;;;;5064587;28;20003;-77
2022/10/03 05:55:46;;;;;;;;;;;24.40;67.50;;;;;;5074659;28;19958;-75
2022/10/03 05:58:13;;;;;;;;;;;23.90;69.00;;;;;;5070696;28;19912;-76
2022/10/03 06:01:02;;;;;;;;;;;23.40;69.90;;;;;;5071662;28;20465;-76
2022/10/03 06:03:52;;;;;;;;;;;23.10;71.50;;;;;;5070543;28;19912;-75
2022/10/03 06:06:37;;;;;;;;;;;22.50;70.00;;;;;;5053713;28;19921;-76
2022/10/03 06:09:23;;;;;;;;;;;21.80;71.80;;;;;;5072034;28;19908;-76
2022/10/03 06:12:03;;;;;;;;;;;21.40;73.80;;;;;;5071067;28;19996;-75
2022/10/03 06:14:37;;;;;;;;;;;21.10;74.10;;;;;;5071921;28;20284;-79
2022/10/03 06:17:03;;;;;;;;;;;20.90;75.40;;;;;;5071847;28;20285;-77
2022/10/03 06:19:51;;;;;;;;;;;20.70;76.20;;;;;;5071574;28;19908;-77
2022/10/03 06:22:17;;;;;;;;;;;20.60;76.90;;;;;;5071198;28;19913;-77
2022/10/03 06:24:47;;;;;;;;;;;20.50;76.30;;;;;;5071497;28;20381;-74
2022/10/03 06:27:24;;;;;;;;;;;20.40;76.40;;;;;;5071621;28;19970;-76
2022/10/03 06:30:10;;;;;;;;;;;20.60;77.20;;;;;;5071738;28;19908;-76
2022/10/03 06:32:55;;;;;;;;;;;21.20;74.90;;;;;;5071006;28;19920;-76
2022/10/03 06:35:40;;;;;;;;;;;21.80;72.80;;;;;;5071562;28;19908;-82
2022/10/03 06:38:17;;;;;;;;;;;22.20;72.20;;;;;;5081090;28;20001;-75
2022/10/03 06:40:58;;;;;;;;;;;23.10;71.40;;;;;;5080475;28;19920;-75
2022/10/03 06:43:24;;;;;;;;;;;23.80;68.00;;;;;;5061493;28;20011;-75
2022/10/03 06:46:03;;;;;;;;;;;23.70;68.90;;;;;;5084658;28;20414;-76
2022/10/03 06:48:48;;;;;;;;;;;23.60;68.80;;;;;;5091679;28;19934;-76
2022/10/03 06:51:32;;;;;;;;;;;23.30;68.70;;;;;;5090416;28;19957;-75
2022/10/03 06:54:12;;;;;;;;;;;23.10;69.80;;;;;;5089870;28;19908;-75
2022/10/03 06:56:39;;;;;;;;;;;22.30;70.90;;;;;;5089514;28;19938;-74
2022/10/03 06:59:14;;;;;;;;;;;21.80;71.70;;;;;;5089588;28;19914;-75
2022/10/03 07:01:51;;;;;;;;;;;21.20;72.10;;;;;;5090123;28;19912;-75
2022/10/03 07:04:23;;;;;;;;;;;20.50;74.70;;;;;;5090618;28;20446;-75
2022/10/03 07:06:58;;;;;;;;;;;20.00;75.70;;;;;;5072242;28;19927;-75
2022/10/03 07:09:36;;;;;;;;;;;19.80;77.00;;;;;;5096680;28;19943;-75
2022/10/03 07:12:30;;;;;;;;;;;19.80;77.00;;;;;;5098216;28;19908;-76
2022/10/03 07:15:15;;;;;;;;;;;19.50;77.70;;;;;;5097466;28;19908;-76
2022/10/03 07:17:50;;;;;;;;;;;19.40;77.80;;;;;;5098117;28;19908;-75
2022/10/03 07:20:35;;;;;;;;;;;19.30;78.60;;;;;;5098226;28;19912;-75
2022/10/03 07:23:20;;;;;;;;;;;19.00;78.90;;;;;;5098109;28;19991;-75
2022/10/03 07:26:16;;;;;;;;;;;18.90;79.40;;;;;;5098018;28;19924;-76
2022/10/03 07:28:46;;;;;;;;;;;18.70;79.90;;;;;;5076173;28;19934;-76
2022/10/03 07:31:13;;;;;;;;;;;18.60;80.60;;;;;;5097856;28;20598;-74
2022/10/03 07:33:52;;;;;;;;;;;18.50;81.30;;;;;;5079428;28;19908;-75
2022/10/03 07:39:08;;;;;;;;;;;18.30;81.70;;;;;;5097758;28;19915;-74
2022/10/03 07:41:35;;;;;;;;;;;18.20;82.30;;;;;;5098091;28;20007;-74
2022/10/03 07:44:02;;;;;;;;;;;18.30;82.20;;;;;;5097728;28;19920;-74
2022/10/03 07:46:55;;;;;;;;;;;18.10;81.60;;;;;;5097742;28;19916;-75
2022/10/03 07:49:30;;;;;;;;;;;18.00;81.80;;;;;;5059381;28;19915;-76
2022/10/03 07:52:02;;;;;;;;;;;18.00;81.90;;;;;;5097413;28;20280;-75
2022/10/03 07:54:47;;;;;;;;;;;17.90;82.00;;;;;;5097281;28;19912;-74
2022/10/03 07:57:14;;;;;;;;;;;17.80;82.40;;;;;;5098025;28;20078;-74
2022/10/03 08:00:01;;;;;;;;;;;17.80;82.60;;;;;;5098012;28;19908;-74
2022/10/03 08:02:49;;;;;;;;;;;17.70;82.00;;;;;;5089984;28;19956;-75
2022/10/03 08:05:28;;;;;;;;;;;17.60;83.40;;;;;;5049908;28;19916;-74
2022/10/03 08:08:31;;;;;;;;;;;17.60;82.60;;;;;;5083736;28;20001;-74
2022/10/03 08:11:07;;;;;;;;;;;17.50;82.60;;;;;;4987897;28;19988;-74
2022/10/03 08:13:49;;;;;;;;;;;17.50;83.10;;;;;;5073487;28;19961;-75
2022/10/03 08:16:22;;;;;;;;;;;17.50;83.10;;;;;;5077345;28;19916;-75
2022/10/03 08:19:04;;;;;;;;;;;17.40;83.50;;;;;;5077069;28;19912;-75
2022/10/03 08:21:49;;;;;;;;;;;17.30;83.70;;;;;;5072275;28;20029;-75
2022/10/03 08:24:21;;;;;;;;;;;17.30;84.00;;;;;;5072655;28;20388;-75
2022/10/03 08:26:51;;;;;;;;;;;17.30;83.90;;;;;;5079875;28;19920;-74
2022/10/03 08:29:24;;;;;;;;;;;17.30;84.20;;;;;;5061143;28;19966;-74
2022/10/03 08:32:19;;;;;;;;;;;17.30;84.40;;;;;;5064118;28;19943;-74
2022/10/03 08:34:56;;;;;;;;;;;17.30;84.30;;;;;;5063250;28;19975;-73
2022/10/03 08:37:40;;;;;;;;;;;17.30;83.70;;;;;;5085442;28;20006;-75
2022/10/03 08:40:17;;;;;;;;;;;17.20;84.30;;;;;;5079819;28;19904;-74
2022/10/03 08:43:14;;;;;;;;;;;17.20;84.60;;;;;;5079328;28;19995;-75
2022/10/03 08:45:41;;;;;;;;;;;17.20;84.80;;;;;;5079407;28;19913;-75
2022/10/03 08:48:29;;;;;;;;;;;17.20;85.50;;;;;;5081718;28;20287;-73
2022/10/03 08:51:17;;;;;;;;;;;17.30;85.00;;;;;;5081766;28;19909;-74
2022/10/03 08:53:56;;;;;;;;;;;17.30;85.40;;;;;;5077550;28;19974;-75
2022/10/03 08:56:32;;;;;;;;;;;17.20;85.10;;;;;;5079854;28;19935;-75
2022/10/03 08:59:08;;;;;;;;;;;17.20;84.90;;;;;;5078976;28;19981;-75
2022/10/03 09:01:53;;;;;;;;;;;17.10;85.30;;;;;;5077948;28;20272;-74
2022/10/03 09:04:58;;;;;;;;;;;17.10;84.90;;;;;;5077252;28;20249;-75
2022/10/03 09:07:24;;;;;;;;;;;17.00;85.00;;;;;;5000164;28;19952;-73
2022/10/03 09:10:09;;;;;;;;;;;17.00;85.10;;;;;;4999159;28;20441;-73
2022/10/03 09:12:55;;;;;;;;;;;16.90;85.50;;;;;;5048656;28;19908;-73
2022/10/03 09:17:49;;;;;;;;;;;16.90;85.40;;;;;;5090758;28;19924;-67
2022/10/03 09:20:31;;;;;;;;;;;16.90;85.20;;;;;;5092995;28;19908;-67
2022/10/03 09:23:16;;;;;;;;;;;16.90;85.50;;;;;;5093425;28;19908;-67
2022/10/03 09:25:45;;;;;;;;;;;16.90;85.40;;;;;;5072947;28;19952;-68
2022/10/03 09:28:15;;;;;;;;;;;16.90;85.80;;;;;;5073289;28;19916;-68
2022/10/03 09:30:48;;;;;;;;;;;16.90;86.00;;;;;;5072858;28;19908;-67
2022/10/03 09:33:38;;;;;;;;;;;16.90;86.00;;;;;;5072719;28;19924;-68
2022/10/03 09:36:17;;;;;;;;;;;17.00;86.10;;;;;;5036277;28;19971;-67
2022/10/03 09:38:44;;;;;;;;;;;17.00;86.30;;;;;;5080894;28;19909;-67
2022/10/03 09:41:10;;;;;;;;;;;17.00;86.80;;;;;;5081327;28;19908;-69
2022/10/03 09:44:16;;;;;;;;;;;17.00;86.50;;;;;;5085291;28;19908;-68
2022/10/03 09:49:46;;;;;;;;;;;16.80;87.20;;;;;;5093191;28;19916;-68
2022/10/03 09:52:26;;;;;;;;;;;16.80;87.70;;;;;;5092774;28;20365;-68
2022/10/03 09:54:57;;;;;;;;;;;16.80;88.00;;;;;;5092621;28;20272;-68
2022/10/03 09:57:37;;;;;;;;;;;16.80;88.50;;;;;;5092650;28;19912;-68
2022/10/03 10:00:19;;;;;;;;;;;16.70;88.70;;;;;;5092731;28;20253;-67
2022/10/03 10:03:02;;;;;;;;;;;16.60;88.80;;;;;;5092444;28;19912;-68
2022/10/03 10:05:41;;;;;;;;;;;16.50;89.30;;;;;;5092347;28;20352;-68
2022/10/03 10:08:23;;;;;;;;;;;16.50;90.00;;;;;;5092609;28;19924;-67
2022/10/03 10:11:02;;;;;;;;;;;16.40;90.40;;;;;;5092698;28;19934;-67
2022/10/03 10:13:47;;;;;;;;;;;16.40;90.60;;;;;;5092317;28;19916;-67
2022/10/03 10:16:32;;;;;;;;;;;16.40;90.90;;;;;;5092305;28;19920;-69
2022/10/03 10:19:17;;;;;;;;;;;16.30;90.90;;;;;;5092647;28;19920;-68
2022/10/03 10:21:46;;;;;;;;;;;16.30;91.20;;;;;;5091826;28;19908;-68
2022/10/03 10:24:19;;;;;;;;;;;16.30;91.30;;;;;;5080075;28;19948;-68
2022/10/03 10:26:55;;;;;;;;;;;16.20;91.40;;;;;;5061669;28;19920;-68
2022/10/03 10:29:35;;;;;;;;;;;16.20;91.70;;;;;;5079385;28;20375;-68
2022/10/03 10:32:19;;;;;;;;;;;16.20;91.60;;;;;;5079465;28;19916;-67
2022/10/03 10:35:04;;;;;;;;;;;16.20;91.70;;;;;;5078800;28;19908;-67
2022/10/03 10:37:34;;;;;;;;;;;16.20;92.00;;;;;;5081986;28;19908;-66
2022/10/03 10:40:19;;;;;;;;;;;16.20;92.00;;;;;;5080155;28;20387;-68
2022/10/03 10:42:45;;;;;;;;;;;16.20;92.00;;;;;;5081384;28;19923;-67
2022/10/03 10:45:30;;;;;;;;;;;16.20;92.20;;;;;;5078898;28;19943;-67
2022/10/03 10:48:12;;;;;;;;;;;16.10;92.00;;;;;;5071854;28;19959;-67
2022/10/03 10:50:51;;;;;;;;;;;16.10;92.30;;;;;;5072004;28;20384;-68
2022/10/03 10:53:46;;;;;;;;;;;16.10;92.30;;;;;;5087402;28;19935;-67
2022/10/03 10:56:31;;;;;;;;;;;16.10;92.30;;;;;;5091664;28;20396;-70
2022/10/03 10:59:16;;;;;;;;;;;16.10;92.40;;;;;;5091480;28;19912;-68
2022/10/03 11:01:42;;;;;;;;;;;16.00;92.20;;;;;;5091534;28;19908;-68
2022/10/03 11:04:48;;;;;;;;;;;15.90;92.40;;;;;;5091316;28;20010;-69
2022/10/03 11:07:43;;;;;;;;;;;15.90;92.40;;;;;;4988953;28;19922;-68
2022/10/03 11:10:33;;;;;;;;;;;16.00;92.80;;;;;;4938288;28;19918;-66
2022/10/03 11:13:17;;;;;;;;;;;16.00;92.60;;;;;;5034453;28;19915;-67
2022/10/03 11:16:11;;;;;;;;;;;15.90;92.80;;;;;;5070969;28;20172;-68
2022/10/03 11:18:41;;;;;;;;;;;16.00;92.90;;;;;;5079713;28;19995;-67
2022/10/03 11:21:19;;;;;;;;;;;15.90;93.20;;;;;;5091618;28;20354;-67
2022/10/03 11:24:05;;;;;;;;;;;15.90;93.10;;;;;;5091459;28;19988;-67
2022/10/03 11:26:38;;;;;;;;;;;15.90;93.20;;;;;;5066279;28;19920;-66
2022/10/03 11:29:23;;;;;;;;;;;15.90;93.40;;;;;;5079133;28;19920;-67
2022/10/03 11:32:08;;;;;;;;;;;15.90;93.50;;;;;;5078405;28;19918;-67
2022/10/03 11:34:57;;;;;;;;;;;15.90;93.60;;;;;;5080175;28;19945;-69
2022/10/03 11:37:39;;;;;;;;;;;15.90;93.60;;;;;;5089598;28;19918;-66
2022/10/03 11:40:24;;;;;;;;;;;15.80;93.50;;;;;;5091453;28;19995;-67
2022/10/03 11:42:59;;;;;;;;;;;15.80;93.40;;;;;;5091317;28;19908;-68
2022/10/03 11:45:41;;;;;;;;;;;15.80;93.30;;;;;;5091320;28;19955;-66
2022/10/03 11:48:18;;;;;;;;;;;15.70;93.30;;;;;;5091370;28;19961;-67
2022/10/03 11:50:49;;;;;;;;;;;15.70;93.50;;;;;;5091264;28;20332;-67
2022/10/03 11:53:34;;;;;;;;;;;15.70;93.50;;;;;;5091212;28;20276;-67
2022/10/03 11:56:12;;;;;;;;;;;15.70;93.60;;;;;;5093835;28;20364;-67
2022/10/03 11:58:53;;;;;;;;;;;15.70;93.50;;;;;;5094780;28;20315;-66
2022/10/03 12:01:23;;;;;;;;;;;15.60;93.50;;;;;;5094890;28;19908;-67
2022/10/03 12:03:49;;;;;;;;;;;15.60;93.60;;;;;;5095030;28;19931;-66
2022/10/03 12:09:17;;;;;;;;;;;15.50;93.90;;;;;;5095249;28;19914;-67
2022/10/03 12:11:52;;;;;;;;;;;15.50;93.80;;;;;;5095005;28;19961;-67
2022/10/03 12:14:19;;;;;;;;;;;15.50;93.80;;;;;;5094621;28;19915;-67
2022/10/03 12:17:04;;;;;;;;;;;15.50;94.00;;;;;;5095059;28;19931;-67
2022/10/03 12:19:31;;;;;;;;;;;15.50;94.30;;;;;;5094946;28;19915;-68
2022/10/03 12:22:17;;;;;;;;;;;15.50;94.20;;;;;;5083408;28;19956;-66
2022/10/03 12:24:46;;;;;;;;;;;15.40;94.50;;;;;;5078448;28;20373;-67
2022/10/03 12:27:29;;;;;;;;;;;15.40;94.60;;;;;;5074566;28;20349;-67
2022/10/03 12:30:01;;;;;;;;;;;15.40;94.80;;;;;;5074342;28;19991;-67
2022/10/03 12:32:31;;;;;;;;;;;15.40;94.90;;;;;;5074198;28;19999;-67
2022/10/03 12:35:07;;;;;;;;;;;15.40;94.70;;;;;;5072580;28;19999;-68
2022/10/03 12:37:43;;;;;;;;;;;15.40;94.90;;;;;;5060999;28;19912;-67
2022/10/03 12:40:30;;;;;;;;;;;15.40;95.40;;;;;;5081538;28;19948;-67
2022/10/03 12:43:14;;;;;;;;;;;15.30;95.20;;;;;;5067697;28;19908;-67
2022/10/03 12:45:46;;;;;;;;;;;15.30;95.20;;;;;;5082831;28;19924;-66
2022/10/03 12:48:18;;;;;;;;;;;15.30;95.20;;;;;;5081980;28;19923;-67
2022/10/03 12:50:55;;;;;;;;;;;15.20;95.50;;;;;;5082968;28;19912;-67
2022/10/03 12:53:26;;;;;;;;;;;15.20;95.60;;;;;;5082630;28;20375;-67
2022/10/03 12:56:03;;;;;;;;;;;15.20;96.00;;;;;;5083841;28;19908;-67
2022/10/03 12:58:29;;;;;;;;;;;15.20;96.10;;;;;;5082285;28;19951;-66
2022/10/03 13:01:01;;;;;;;;;;;15.10;96.20;;;;;;5083185;28;19908;-67
2022/10/03 13:03:49;;;;;;;;;;;15.10;96.40;;;;;;5073727;28;19909;-67
2022/10/03 13:06:34;;;;;;;;;;;15.00;96.50;;;;;;5055720;28;20356;-68
2022/10/03 13:09:17;;;;;;;;;;;14.90;96.70;;;;;;5074137;28;20381;-68
2022/10/03 13:12:03;;;;;;;;;;;14.90;96.80;;;;;;5073387;28;19961;-67
2022/10/03 13:14:37;;;;;;;;;;;14.90;96.70;;;;;;5073720;28;20322;-68
2022/10/03 13:17:07;;;;;;;;;;;14.80;97.30;;;;;;5073239;28;19920;-68
2022/10/03 13:19:41;;;;;;;;;;;14.80;97.20;;;;;;5073694;28;19938;-70
2022/10/03 13:22:28;;;;;;;;;;;14.70;97.40;;;;;;5073542;28;19916;-67
2022/10/03 13:24:58;;;;;;;;;;;14.70;97.70;;;;;;5073603;28;20327;-68
2022/10/03 13:27:36;;;;;;;;;;;14.70;97.60;;;;;;5073400;28;19991;-68
2022/10/03 13:30:05;;;;;;;;;;;14.70;97.70;;;;;;5072941;28;20064;-68
2022/10/03 13:32:37;;;;;;;;;;;14.70;97.80;;;;;;5073109;28;19909;-67
2022/10/03 13:38:06;;;;;;;;;;;14.50;98.10;;;;;;5073450;28;20327;-69
2022/10/03 13:40:36;;;;;;;;;;;14.50;98.00;;;;;;5073317;28;20046;-69
2022/10/03 13:43:08;;;;;;;;;;;14.50;98.20;;;;;;5072953;28;19908;-68
2022/10/03 13:45:38;;;;;;;;;;;14.40;98.30;;;;;;5072838;28;19915;-68
2022/10/03 13:48:07;;;;;;;;;;;14.40;98.60;;;;;;5073070;28;20910;-67
2022/10/03 13:50:39;;;;;;;;;;;14.50;98.60;;;;;;5073176;28;19908;-68
2022/10/03 13:53:11;;;;;;;;;;;14.50;98.60;;;;;;5072866;28;19908;-67
2022/10/03 13:55:44;;;;;;;;;;;14.40;98.90;;;;;;5073058;28;20357;-67
2022/10/03 13:58:10;;;;;;;;;;;14.40;99.10;;;;;;5073016;28;19966;-67
2022/10/03 14:01:00;;;;;;;;;;;14.40;99.10;;;;;;5072688;28;19909;-67
2022/10/03 14:03:34;;;;;;;;;;;14.20;99.30;;;;;;5064013;28;19973;-67
2022/10/03 14:06:04;;;;;;;;;;;14.20;99.80;;;;;;5072260;28;19919;-67
2022/10/03 14:08:45;;;;;;;;;;;14.10;99.90;;;;;;5072584;28;19912;-67
2022/10/03 14:11:31;;;;;;;;;;;14.20;99.90;;;;;;5072616;28;19998;-68
2022/10/03 14:13:58;;;;;;;;;;;14.10;99.90;;;;;;5072167;28;20371;-67
2022/10/03 14:16:30;;;;;;;;;;;14.10;99.90;;;;;;5072096;28;19932;-66
2022/10/03 14:19:13;;;;;;;;;;;14.00;99.90;;;;;;5071688;28;19916;-67
2022/10/03 14:21:49;;;;;;;;;;;14.00;99.90;;;;;;5071513;28;19915;-67
2022/10/03 14:24:15;;;;;;;;;;;14.00;99.90;;;;;;5072009;28;19908;-67
2022/10/03 14:26:49;;;;;;;;;;;13.90;99.90;;;;;;5072257;28;19916;-67
2022/10/03 14:29:19;;;;;;;;;;;13.90;99.90;;;;;;5072262;28;19909;-68
2022/10/03 14:31:57;;;;;;;;;;;13.90;99.90;;;;;;5054018;28;20326;-67
2022/10/03 14:34:32;;;;;;;;;;;13.80;99.90;;;;;;5072311;28;20552;-66
2022/10/03 14:37:17;;;;;;;;;;;13.80;99.90;;;;;;5072183;28;19909;-68
2022/10/03 14:40:04;;;;;;;;;;;13.80;99.90;;;;;;5071802;28;19916;-67
2022/10/03 14:42:40;;;;;;;;;;;13.80;99.90;;;;;;5023950;28;19916;-67
2022/10/03 14:45:09;;;;;;;;;;;13.70;99.90;;;;;;5072179;28;19908;-68
2022/10/03 14:47:37;;;;;;;;;;;13.60;99.90;;;;;;5072009;28;19924;-68
2022/10/03 14:50:04;;;;;;;;;;;13.70;99.90;;;;;;5072363;28;20352;-66
2022/10/03 14:52:40;;;;;;;;;;;13.70;99.90;;;;;;5072197;28;19915;-66
2022/10/03 14:55:20;;;;;;;;;;;13.60;99.90;;;;;;5071890;28;19908;-67
2022/10/03 14:57:53;;;;;;;;;;;13.50;99.90;;;;;;5072296;28;19909;-66
2022/10/03 15:00:26;;;;;;;;;;;13.50;99.90;;;;;;5072187;28;19908;-67
2022/10/03 15:02:53;;;;;;;;;;;13.40;99.90;;;;;;5071810;28;19908;-66
2022/10/03 15:05:34;;;;;;;;;;;13.40;99.90;;;;;;5071892;28;19939;-67
2022/10/03 15:08:02;;;;;;;;;;;13.50;99.90;;;;;;5072090;28;19924;-67
2022/10/03 15:10:30;;;;;;;;;;;13.40;99.90;;;;;;5072191;28;19913;-67
2022/10/03 15:13:09;;;;;;;;;;;13.40;99.90;;;;;;5071743;28;19959;-68
2022/10/03 15:15:40;;;;;;;;;;;13.40;99.90;;;;;;5071500;28;20350;-68
2022/10/03 15:18:12;;;;;;;;;;;13.40;99.90;;;;;;5071491;28;19920;-68
2022/10/03 15:20:40;;;;;;;;;;;13.30;99.90;;;;;;5071658;28;19948;-67
2022/10/03 15:23:10;;;;;;;;;;;13.30;99.90;;;;;;5071450;28;19968;-67
2022/10/03 15:25:38;;;;;;;;;;;13.40;99.90;;;;;;5071492;28;19909;-67
2022/10/03 15:28:07;;;;;;;;;;;13.30;99.90;;;;;;5071511;28;19924;-67
2022/10/03 15:30:35;;;;;;;;;;;13.30;99.90;;;;;;5075772;28;19908;-68
2022/10/03 15:33:25;;;;;;;;;;;13.30;99.90;;;;;;5075310;28;20372;-67
2022/10/03 15:35:58;;;;;;;;;;;13.30;99.90;;;;;;5067447;28;19910;-66